Gordon V.sr. — WDB8505 — position and weather

sailwx.info

Track history (hours):
 
Tides and Currents Weather Stations Pressure Air Temp Water Temp Dewpoint Dewpoint Depression Visibility Wind Speed Wind Dir Waves Ship Positions

Gordon V.sr.

Owner: B&G TOWING L.L.C., Lafitte, LA. More information available from US FCC via Universal Licensing System and Coast Guard Vessel Documentation Center.

Last reported at 2015-Jul-04 10:18 UTC. Time now 2015-Jul-04 22:32 UTC.
Position N 29°57' W 090°01'.

MMSI: 365910942.

Date/timePositionNaut miles runAvg speedWind from/ knotsBaromVisibWave heightAir tempDewpointWater temp
2015-Jul-04 10:18N 29°57' W 090°01'1 1.5
2015-Jul-04 09:25N 29°56' W 089°60'0 0.4
2015-Jul-04 08:11N 29°56' W 089°59'0 0.5
2015-Jul-04 07:31N 29°56' W 089°59'2 1.6
2015-Jul-04 06:29N 29°57' W 090°01'1 0.6
2015-Jul-04 05:32N 29°57' W 090°00'0 0.3
2015-Jul-04 04:32N 29°57' W 090°01'0 0.3
2015-Jul-04 03:28N 29°57' W 090°01'2 1.7
2015-Jul-04 02:32N 29°56' W 089°59'2 1.5
2015-Jul-04 01:30N 29°57' W 090°01'0 0.1
2015-Jul-04 00:20N 29°57' W 090°01'0 0.1
2015-Jul-03 23:25N 29°57' W 090°01'0 0.2
2015-Jul-03 22:32N 29°57' W 090°01'0 0.1
2015-Jul-03 21:32N 29°57' W 090°01'2 1.5
2015-Jul-03 20:25N 29°56' W 089°59'0 0.2
2015-Jul-03 19:32N 29°56' W 089°59'0 0.0
2015-Jul-03 18:32N 29°56' W 089°59'0 0.2
2015-Jul-03 17:33N 29°56' W 089°59'1 1.2
2015-Jul-03 16:28N 29°57' W 090°01'0 0.2
2015-Jul-03 15:31N 29°57' W 090°01'2 1.9
2015-Jul-03 14:33N 29°56' W 089°59'0 0.1
2015-Jul-03 13:27N 29°56' W 089°59'1 1.0
2015-Jul-03 12:32N 29°57' W 089°60'1 0.4
2015-Jul-03 10:31N 29°57' W 090°01'0 0.0
2015-Jul-03 09:26N 29°57' W 090°01'0 0.0
2015-Jul-03 08:04N 29°57' W 090°01'0 0.0
2015-Jul-03 07:28N 29°57' W 090°01'3 2.9
2015-Jul-03 06:32N 29°59' W 090°01'1 1.0
2015-Jul-03 05:25N 30°00' W 090°02'2 2.4
2015-Jul-03 04:25N 29°60' W 089°59'2 0.7
2015-Jul-03 01:16N 30°00' W 090°01'2 2.4
2015-Jul-03 00:31N 29°58' W 090°02'2 1.6
2015-Jul-02 23:29N 29°57' W 090°01'0 0.1
2015-Jul-02 22:24N 29°57' W 090°01'0 0.0
2015-Jul-02 21:32N 29°57' W 090°01'0 0.0
2015-Jul-02 20:32N 29°57' W 090°01'0 0.0
2015-Jul-02 19:33N 29°57' W 090°01'0 0.0
2015-Jul-02 18:33N 29°57' W 090°01'1 0.8
2015-Jul-02 17:33N 29°57' W 089°60'1 1.0
2015-Jul-02 16:28N 29°57' W 090°01'3 3.8
2015-Jul-02 15:34N 29°55' W 089°57'3 3.4
2015-Jul-02 14:33N 29°57' W 090°01'0 0.3
2015-Jul-02 13:33N 29°57' W 090°01'0 0.0
2015-Jul-02 12:33N 29°57' W 090°01'0 0.1
2015-Jul-02 11:33N 29°57' W 090°01'0 0.1
2015-Jul-02 10:32N 29°57' W 090°01'0 0.0
2015-Jul-02 09:33N 29°57' W 090°01'0 0.0
2015-Jul-02 08:08N 29°57' W 090°01'0 0.0
2015-Jul-02 07:28N 29°57' W 090°01'0 0.0
2015-Jul-02 06:17N 29°57' W 090°01'0 0.0
2015-Jul-02 00:13N 29°57' W 090°01'0 0.0
2015-Jul-01 23:32N 29°57' W 090°01'0 0.1
2015-Jul-01 22:33N 29°57' W 090°01'0 0.0
2015-Jul-01 21:32N 29°57' W 090°01'0 0.1
2015-Jul-01 20:33N 29°57' W 090°01'0 0.3
2015-Jul-01 19:32N 29°57' W 090°01'1 1.2
2015-Jul-01 18:33N 29°56' W 089°60'1 1.2
2015-Jul-01 17:30N 29°57' W 090°01'0 0.0
2015-Jul-01 16:33N 29°57' W 090°01'0 0.3
2015-Jul-01 15:32N 29°57' W 090°01'0 0.1
2015-Jul-01 14:23N 29°57' W 090°01'0 0.2
2015-Jul-01 13:25N 29°57' W 090°01'0 0.0
2015-Jun-30 23:33N 29°57' W 090°01'1 0.8
2015-Jun-30 22:30N 29°56' W 089°60'1 0.7
2015-Jun-30 21:31N 29°57' W 090°01'0 0.0
2015-Jun-30 20:28N 29°57' W 090°01'0 0.0
2015-Jun-30 19:32N 29°57' W 090°01'0 0.0
2015-Jun-30 18:26N 29°57' W 090°01'0 0.1
2015-Jun-30 17:27N 29°57' W 090°01'0 0.0
2015-Jun-30 16:33N 29°57' W 090°01'0 0.1
2015-Jun-30 15:32N 29°57' W 090°01'0 0.0
2015-Jun-30 14:33N 29°57' W 090°01'0 0.0
2015-Jun-30 13:30N 29°57' W 090°01'0 0.0
2015-Jun-30 12:32N 29°57' W 090°01'0 0.1
2015-Jun-30 11:25N 29°57' W 090°01'1 1.7
2015-Jun-30 10:32N 29°56' W 089°59'0 0.0
2015-Jun-30 09:33N 29°56' W 089°59'0 0.1
2015-Jun-30 08:25N 29°56' W 089°59'0 0.1
2015-Jun-30 07:30N 29°56' W 089°59'0 0.0
2015-Jun-30 06:33N 29°56' W 089°59'0 0.0
2015-Jun-30 05:32N 29°56' W 089°59'0 0.0
2015-Jun-30 04:30N 29°56' W 089°59'0 0.2
2015-Jun-30 03:31N 29°56' W 089°59'1 0.6
2015-Jun-30 02:32N 29°56' W 089°60'1 0.7
2015-Jun-30 01:32N 29°56' W 089°59'0 0.1
2015-Jun-30 00:29N 29°56' W 089°59'1 1.4
2015-Jun-29 23:32N 29°57' W 090°01'0 0.0
2015-Jun-29 22:32N 29°57' W 090°01'0 0.1
2015-Jun-29 21:25N 29°57' W 090°01'0 0.0
2015-Jun-29 20:33N 29°57' W 090°01'5 4.1
2015-Jun-29 19:24N 29°55' W 090°06'1 1.1
2015-Jun-29 18:32N 29°55' W 090°07'3 3.1
2015-Jun-29 17:34N 29°56' W 090°04'2 2.2
2015-Jun-29 16:33N 29°57' W 090°02'1 0.7
2015-Jun-29 15:33N 29°57' W 090°01'0 0.0
2015-Jun-29 14:32N 29°57' W 090°01'0 0.0
2015-Jun-29 13:33N 29°57' W 090°01'0 0.0
2015-Jun-29 12:29N 29°57' W 090°01'0 0.0
2015-Jun-29 11:32N 29°57' W 090°01'2 0.3
2015-Jun-29 07:10N 29°56' W 089°59'0 0.0
2015-Jun-29 06:22N 29°56' W 089°59'0 0.0
2015-Jun-29 05:24N 29°56' W 089°59'0 0.0
2015-Jun-29 04:13N 29°56' W 089°59'1 0.8
2015-Jun-29 03:33N 29°56' W 089°60'0 0.4
2015-Jun-29 02:32N 29°56' W 089°59'0 0.0
2015-Jun-29 01:30N 29°56' W 089°59'0 0.1
2015-Jun-29 00:15N 29°56' W 089°59'1 1.5
2015-Jun-28 23:31N 29°57' W 090°01'0 0.1
2015-Jun-28 22:29N 29°57' W 090°01'0 0.1
2015-Jun-28 21:30N 29°57' W 090°01'0 0.0
2015-Jun-28 20:24N 29°57' W 090°01'0 0.0
2015-Jun-28 19:31N 29°57' W 090°01'0 0.0
2015-Jun-28 18:31N 29°57' W 090°01'0 0.0
2015-Jun-28 17:32N 29°57' W 090°01'0 0.0
2015-Jun-28 16:28N 29°57' W 090°01'0 0.0
2015-Jun-28 15:30N 29°57' W 090°01'0 0.0
2015-Jun-28 14:24N 29°57' W 090°01'0 0.0
2015-Jun-28 13:29N 29°57' W 090°01'0 0.0
2015-Jun-28 12:33N 29°57' W 090°01'0 0.1
2015-Jun-28 11:33N 29°57' W 090°01'1 0.0
2015-Jun-27 07:13N 29°56' W 089°59'0 0.1
2015-Jun-27 06:33N 29°56' W 089°59'0 0.2
2015-Jun-27 05:33N 29°56' W 089°59'0 0.0
2015-Jun-27 04:31N 29°56' W 089°59'0 0.0
2015-Jun-27 03:33N 29°56' W 089°59'0 0.4
2015-Jun-27 02:33N 29°56' W 089°59'0 0.4
2015-Jun-27 01:30N 29°56' W 089°59'0 0.1
2015-Jun-27 00:30N 29°56' W 089°59'2 1.7
2015-Jun-26 23:31N 29°57' W 090°01'1 0.7
2015-Jun-26 22:32N 29°57' W 090°02'2 1.7
2015-Jun-26 21:29N 29°56' W 090°03'1 1.1
2015-Jun-26 20:33N 29°55' W 090°04'3 2.9
2015-Jun-26 19:27N 29°57' W 090°01'0 0.0
2015-Jun-26 18:29N 29°57' W 090°01'0 0.0
2015-Jun-26 17:29N 29°57' W 090°01'0 0.1
2015-Jun-26 16:33N 29°56' W 090°01'0 0.2
2015-Jun-26 15:24N 29°57' W 090°01'0 0.0
2015-Jun-26 14:33N 29°57' W 090°01'0 0.0
2015-Jun-26 13:08N 29°57' W 090°01'0 0.0
2015-Jun-26 12:28N 29°57' W 090°01'0 0.1
2015-Jun-26 11:33N 29°57' W 090°01'1 1.5
2015-Jun-26 10:32N 29°56' W 089°59'0 0.0
2015-Jun-26 09:33N 29°56' W 089°59'0 0.0
2015-Jun-26 08:33N 29°56' W 089°59'0 0.0
2015-Jun-26 07:33N 29°56' W 089°59'0 0.0
2015-Jun-26 06:30N 29°56' W 089°59'0 0.2
2015-Jun-26 05:32N 29°56' W 089°59'0 0.0
2015-Jun-26 04:18N 29°56' W 089°59'1 1.4
2015-Jun-26 03:26N 29°57' W 090°01'0 0.0
2015-Jun-26 02:30N 29°57' W 090°01'0 0.0
2015-Jun-25 12:31N 29°57' W 090°01'0 0.0
2015-Jun-25 10:29N 29°57' W 090°01'1 0.8
2015-Jun-25 08:33N 29°56' W 089°59'2 1.7
2015-Jun-25 07:30N 29°57' W 090°01'0 0.0
2015-Jun-25 06:32N 29°57' W 090°01'0 0.0
2015-Jun-25 05:22N 29°57' W 090°01'0 0.0
2015-Jun-25 04:31N 29°57' W 090°01'1 0.7
2015-Jun-25 03:30N 29°57' W 090°00'1 0.6
2015-Jun-25 02:31N 29°57' W 090°01'0 0.2
2015-Jun-25 01:33N 29°57' W 090°01'0 0.2
2015-Jun-25 00:32N 29°56' W 090°01'0 0.3
2015-Jun-24 23:32N 29°57' W 090°01'1 1.4
2015-Jun-24 22:32N 29°56' W 089°59'4 3.9
2015-Jun-24 21:33N 29°57' W 090°04'2 2.1
2015-Jun-24 20:33N 29°55' W 090°05'2 1.7
2015-Jun-24 19:33N 29°56' W 090°04'2 2.0
2015-Jun-24 18:33N 29°57' W 090°01'3 2.1
2015-Jun-24 17:21N 29°55' W 090°04'2 2.5
2015-Jun-24 16:33N 29°57' W 090°03'3 2.8
2015-Jun-24 15:32N 29°57' W 090°00'1 0.7
2015-Jun-24 14:31N 29°56' W 089°59'1 0.4
2015-Jun-24 11:23N 29°57' W 090°01'0 0.0
2015-Jun-24 10:27N 29°57' W 090°01'  
Track history (hours):
 
Tides and Currents Weather Stations Pressure Air Temp Water Temp Dewpoint Dewpoint Depression Visibility Wind Speed Wind Dir Waves Ship Positions

Gordon V.sr.

Owner: B&G TOWING L.L.C., Lafitte, LA. More information available from US FCC via Universal Licensing System and Coast Guard Vessel Documentation Center.

Last reported at 2015-Jul-04 10:18 UTC. Time now 2015-Jul-04 22:32 UTC.
Position N 29°57' W 090°01'.

MMSI: 365910942.

Date/timePositionNaut miles runAvg speedWind from/ knotsBaromVisibWave heightAir tempDewpointWater temp
2015-Jul-04 10:18N 29°57' W 090°01'1 1.5
2015-Jul-04 09:25N 29°56' W 089°60'0 0.4
2015-Jul-04 08:11N 29°56' W 089°59'0 0.5
2015-Jul-04 07:31N 29°56' W 089°59'2 1.6
2015-Jul-04 06:29N 29°57' W 090°01'1 0.6
2015-Jul-04 05:32N 29°57' W 090°00'0 0.3
2015-Jul-04 04:32N 29°57' W 090°01'0 0.3
2015-Jul-04 03:28N 29°57' W 090°01'2 1.7
2015-Jul-04 02:32N 29°56' W 089°59'2 1.5
2015-Jul-04 01:30N 29°57' W 090°01'0 0.1
2015-Jul-04 00:20N 29°57' W 090°01'0 0.1
2015-Jul-03 23:25N 29°57' W 090°01'0 0.2
2015-Jul-03 22:32N 29°57' W 090°01'0 0.1
2015-Jul-03 21:32N 29°57' W 090°01'2 1.5
2015-Jul-03 20:25N 29°56' W 089°59'0 0.2
2015-Jul-03 19:32N 29°56' W 089°59'0 0.0
2015-Jul-03 18:32N 29°56' W 089°59'0 0.2
2015-Jul-03 17:33N 29°56' W 089°59'1 1.2
2015-Jul-03 16:28N 29°57' W 090°01'0 0.2
2015-Jul-03 15:31N 29°57' W 090°01'2 1.9
2015-Jul-03 14:33N 29°56' W 089°59'0 0.1
2015-Jul-03 13:27N 29°56' W 089°59'1 1.0
2015-Jul-03 12:32N 29°57' W 089°60'1 0.4
2015-Jul-03 10:31N 29°57' W 090°01'0 0.0
2015-Jul-03 09:26N 29°57' W 090°01'0 0.0
2015-Jul-03 08:04N 29°57' W 090°01'0 0.0
2015-Jul-03 07:28N 29°57' W 090°01'3 2.9
2015-Jul-03 06:32N 29°59' W 090°01'1 1.0
2015-Jul-03 05:25N 30°00' W 090°02'2 2.4
2015-Jul-03 04:25N 29°60' W 089°59'2 0.7
2015-Jul-03 01:16N 30°00' W 090°01'2 2.4
2015-Jul-03 00:31N 29°58' W 090°02'2 1.6
2015-Jul-02 23:29N 29°57' W 090°01'0 0.1
2015-Jul-02 22:24N 29°57' W 090°01'0 0.0
2015-Jul-02 21:32N 29°57' W 090°01'0 0.0
2015-Jul-02 20:32N 29°57' W 090°01'0 0.0
2015-Jul-02 19:33N 29°57' W 090°01'0 0.0
2015-Jul-02 18:33N 29°57' W 090°01'1 0.8
2015-Jul-02 17:33N 29°57' W 089°60'1 1.0
2015-Jul-02 16:28N 29°57' W 090°01'3 3.8
2015-Jul-02 15:34N 29°55' W 089°57'3 3.4
2015-Jul-02 14:33N 29°57' W 090°01'0 0.3
2015-Jul-02 13:33N 29°57' W 090°01'0 0.0
2015-Jul-02 12:33N 29°57' W 090°01'0 0.1
2015-Jul-02 11:33N 29°57' W 090°01'0 0.1
2015-Jul-02 10:32N 29°57' W 090°01'0 0.0
2015-Jul-02 09:33N 29°57' W 090°01'0 0.0
2015-Jul-02 08:08N 29°57' W 090°01'0 0.0
2015-Jul-02 07:28N 29°57' W 090°01'0 0.0
2015-Jul-02 06:17N 29°57' W 090°01'0 0.0
2015-Jul-02 00:13N 29°57' W 090°01'0 0.0
2015-Jul-01 23:32N 29°57' W 090°01'0 0.1
2015-Jul-01 22:33N 29°57' W 090°01'0 0.0
2015-Jul-01 21:32N 29°57' W 090°01'0 0.1
2015-Jul-01 20:33N 29°57' W 090°01'0 0.3
2015-Jul-01 19:32N 29°57' W 090°01'1 1.2
2015-Jul-01 18:33N 29°56' W 089°60'1 1.2
2015-Jul-01 17:30N 29°57' W 090°01'0 0.0
2015-Jul-01 16:33N 29°57' W 090°01'0 0.3
2015-Jul-01 15:32N 29°57' W 090°01'0 0.1
2015-Jul-01 14:23N 29°57' W 090°01'0 0.2
2015-Jul-01 13:25N 29°57' W 090°01'0 0.0
2015-Jun-30 23:33N 29°57' W 090°01'1 0.8
2015-Jun-30 22:30N 29°56' W 089°60'1 0.7
2015-Jun-30 21:31N 29°57' W 090°01'0 0.0
2015-Jun-30 20:28N 29°57' W 090°01'0 0.0
2015-Jun-30 19:32N 29°57' W 090°01'0 0.0
2015-Jun-30 18:26N 29°57' W 090°01'0 0.1
2015-Jun-30 17:27N 29°57' W 090°01'0 0.0
2015-Jun-30 16:33N 29°57' W 090°01'0 0.1
2015-Jun-30 15:32N 29°57' W 090°01'0 0.0
2015-Jun-30 14:33N 29°57' W 090°01'0 0.0
2015-Jun-30 13:30N 29°57' W 090°01'0 0.0
2015-Jun-30 12:32N 29°57' W 090°01'0 0.1
2015-Jun-30 11:25N 29°57' W 090°01'1 1.7
2015-Jun-30 10:32N 29°56' W 089°59'0 0.0
2015-Jun-30 09:33N 29°56' W 089°59'0 0.1
2015-Jun-30 08:25N 29°56' W 089°59'0 0.1
2015-Jun-30 07:30N 29°56' W 089°59'0 0.0
2015-Jun-30 06:33N 29°56' W 089°59'0 0.0
2015-Jun-30 05:32N 29°56' W 089°59'0 0.0
2015-Jun-30 04:30N 29°56' W 089°59'0 0.2
2015-Jun-30 03:31N 29°56' W 089°59'1 0.6
2015-Jun-30 02:32N 29°56' W 089°60'1 0.7
2015-Jun-30 01:32N 29°56' W 089°59'0 0.1
2015-Jun-30 00:29N 29°56' W 089°59'1 1.4
2015-Jun-29 23:32N 29°57' W 090°01'0 0.0
2015-Jun-29 22:32N 29°57' W 090°01'0 0.1
2015-Jun-29 21:25N 29°57' W 090°01'0 0.0
2015-Jun-29 20:33N 29°57' W 090°01'5 4.1
2015-Jun-29 19:24N 29°55' W 090°06'1 1.1
2015-Jun-29 18:32N 29°55' W 090°07'3 3.1
2015-Jun-29 17:34N 29°56' W 090°04'2 2.2
2015-Jun-29 16:33N 29°57' W 090°02'1 0.7
2015-Jun-29 15:33N 29°57' W 090°01'0 0.0
2015-Jun-29 14:32N 29°57' W 090°01'0 0.0
2015-Jun-29 13:33N 29°57' W 090°01'0 0.0
2015-Jun-29 12:29N 29°57' W 090°01'0 0.0
2015-Jun-29 11:32N 29°57' W 090°01'2 0.3
2015-Jun-29 07:10N 29°56' W 089°59'0 0.0
2015-Jun-29 06:22N 29°56' W 089°59'0 0.0
2015-Jun-29 05:24N 29°56' W 089°59'0 0.0
2015-Jun-29 04:13N 29°56' W 089°59'1 0.8
2015-Jun-29 03:33N 29°56' W 089°60'0 0.4
2015-Jun-29 02:32N 29°56' W 089°59'0 0.0
2015-Jun-29 01:30N 29°56' W 089°59'0 0.1
2015-Jun-29 00:15N 29°56' W 089°59'1 1.5
2015-Jun-28 23:31N 29°57' W 090°01'0 0.1
2015-Jun-28 22:29N 29°57' W 090°01'0 0.1
2015-Jun-28 21:30N 29°57' W 090°01'0 0.0
2015-Jun-28 20:24N 29°57' W 090°01'0 0.0
2015-Jun-28 19:31N 29°57' W 090°01'0 0.0
2015-Jun-28 18:31N 29°57' W 090°01'0 0.0
2015-Jun-28 17:32N 29°57' W 090°01'0 0.0
2015-Jun-28 16:28N 29°57' W 090°01'0 0.0
2015-Jun-28 15:30N 29°57' W 090°01'0 0.0
2015-Jun-28 14:24N 29°57' W 090°01'0 0.0
2015-Jun-28 13:29N 29°57' W 090°01'0 0.0
2015-Jun-28 12:33N 29°57' W 090°01'0 0.1
2015-Jun-28 11:33N 29°57' W 090°01'1 0.0
2015-Jun-27 07:13N 29°56' W 089°59'0 0.1
2015-Jun-27 06:33N 29°56' W 089°59'0 0.2
2015-Jun-27 05:33N 29°56' W 089°59'0 0.0
2015-Jun-27 04:31N 29°56' W 089°59'0 0.0
2015-Jun-27 03:33N 29°56' W 089°59'0 0.4
2015-Jun-27 02:33N 29°56' W 089°59'0 0.4
2015-Jun-27 01:30N 29°56' W 089°59'0 0.1
2015-Jun-27 00:30N 29°56' W 089°59'2 1.7
2015-Jun-26 23:31N 29°57' W 090°01'1 0.7
2015-Jun-26 22:32N 29°57' W 090°02'2 1.7
2015-Jun-26 21:29N 29°56' W 090°03'1 1.1
2015-Jun-26 20:33N 29°55' W 090°04'3 2.9
2015-Jun-26 19:27N 29°57' W 090°01'0 0.0
2015-Jun-26 18:29N 29°57' W 090°01'0 0.0
2015-Jun-26 17:29N 29°57' W 090°01'0 0.1
2015-Jun-26 16:33N 29°56' W 090°01'0 0.2
2015-Jun-26 15:24N 29°57' W 090°01'0 0.0
2015-Jun-26 14:33N 29°57' W 090°01'0 0.0
2015-Jun-26 13:08N 29°57' W 090°01'0 0.0
2015-Jun-26 12:28N 29°57' W 090°01'0 0.1
2015-Jun-26 11:33N 29°57' W 090°01'1 1.5
2015-Jun-26 10:32N 29°56' W 089°59'0 0.0
2015-Jun-26 09:33N 29°56' W 089°59'0 0.0
2015-Jun-26 08:33N 29°56' W 089°59'0 0.0
2015-Jun-26 07:33N 29°56' W 089°59'0 0.0
2015-Jun-26 06:30N 29°56' W 089°59'0 0.2
2015-Jun-26 05:32N 29°56' W 089°59'0 0.0
2015-Jun-26 04:18N 29°56' W 089°59'1 1.4
2015-Jun-26 03:26N 29°57' W 090°01'0 0.0
2015-Jun-26 02:30N 29°57' W 090°01'0 0.0
2015-Jun-25 12:31N 29°57' W 090°01'0 0.0
2015-Jun-25 10:29N 29°57' W 090°01'1 0.8
2015-Jun-25 08:33N 29°56' W 089°59'2 1.7
2015-Jun-25 07:30N 29°57' W 090°01'0 0.0
2015-Jun-25 06:32N 29°57' W 090°01'0 0.0
2015-Jun-25 05:22N 29°57' W 090°01'0 0.0
2015-Jun-25 04:31N 29°57' W 090°01'1 0.7
2015-Jun-25 03:30N 29°57' W 090°00'1 0.6
2015-Jun-25 02:31N 29°57' W 090°01'0 0.2
2015-Jun-25 01:33N 29°57' W 090°01'0 0.2
2015-Jun-25 00:32N 29°56' W 090°01'0 0.3
2015-Jun-24 23:32N 29°57' W 090°01'1 1.4
2015-Jun-24 22:32N 29°56' W 089°59'4 3.9
2015-Jun-24 21:33N 29°57' W 090°04'2 2.1
2015-Jun-24 20:33N 29°55' W 090°05'2 1.7
2015-Jun-24 19:33N 29°56' W 090°04'2 2.0
2015-Jun-24 18:33N 29°57' W 090°01'3 2.1
2015-Jun-24 17:21N 29°55' W 090°04'2 2.5
2015-Jun-24 16:33N 29°57' W 090°03'3 2.8
2015-Jun-24 15:32N 29°57' W 090°00'1 0.7
2015-Jun-24 14:31N 29°56' W 089°59'1 0.4
2015-Jun-24 11:23N 29°57' W 090°01'0 0.0
2015-Jun-24 10:27N 29°57' W 090°01'  

Dump ship's entire track history